createdAt,value
2018-05-09T00:00:40.054Z,4.75
2018-05-09T00:01:48.592Z,4.35
2018-05-09T00:02:57.298Z,5.03
2018-05-09T00:04:05.847Z,4.65
2018-05-09T00:05:14.451Z,4.05
2018-05-09T00:06:23.049Z,4.37
2018-05-09T00:07:31.726Z,4.30
2018-05-09T00:08:40.398Z,4.32
2018-05-09T00:09:48.989Z,5.12
2018-05-09T00:10:58.631Z,4.57
2018-05-09T00:12:07.348Z,4.60
2018-05-09T00:13:17.565Z,4.97
2018-05-09T00:14:26.258Z,5.03
2018-05-09T00:15:35.014Z,5.20
2018-05-09T00:16:44.409Z,4.30
2018-05-09T00:17:53.100Z,4.20
2018-05-09T00:19:01.766Z,4.45
2018-05-09T00:20:10.366Z,4.62
2018-05-09T00:21:18.998Z,4.68
2018-05-09T00:22:27.703Z,4.70
2018-05-09T00:23:37.107Z,5.50
2018-05-09T00:24:45.823Z,4.70
2018-05-09T00:25:54.568Z,5.37
2018-05-09T00:27:03.137Z,4.60
2018-05-09T00:28:12.572Z,4.20
2018-05-09T00:29:22.091Z,3.90
2018-05-09T00:30:30.779Z,4.40
2018-05-09T00:31:39.363Z,4.10
2018-05-09T00:32:47.932Z,4.62
2018-05-09T00:33:57.442Z,4.45
2018-05-09T00:35:06.303Z,4.05
2018-05-09T00:36:14.824Z,4.97
2018-05-09T00:37:23.354Z,5.25
2018-05-09T00:38:31.990Z,3.78
2018-05-09T00:39:40.595Z,4.60
2018-05-09T00:40:50.236Z,5.00
2018-05-09T00:41:58.983Z,4.68
2018-05-09T00:43:07.571Z,4.25
2018-05-09T00:44:16.285Z,5.10
2018-05-09T00:45:25.802Z,4.65
2018-05-09T00:46:34.659Z,5.03
2018-05-09T00:47:43.455Z,4.10
2018-05-09T00:48:52.217Z,5.12
2018-05-09T00:50:01.080Z,4.05
2018-05-09T00:51:09.626Z,5.62
2018-05-09T00:52:18.186Z,4.03
2018-05-09T00:53:26.894Z,4.05
2018-05-09T00:54:35.693Z,5.00
2018-05-09T00:55:44.299Z,3.90
2018-05-09T00:56:52.909Z,5.07
2018-05-09T00:58:01.620Z,5.18
2018-05-09T00:59:10.202Z,4.25
2018-05-09T01:00:19.639Z,4.65
2018-05-09T01:01:29.208Z,4.45
2018-05-09T01:02:38.799Z,4.82
2018-05-09T01:03:47.401Z,4.80
2018-05-09T01:04:56.138Z,4.35
2018-05-09T01:06:04.731Z,4.22
2018-05-09T01:07:13.459Z,4.28
2018-05-09T01:08:22.011Z,4.03
2018-05-09T01:09:30.657Z,4.43
2018-05-09T01:10:39.283Z,4.47
2018-05-09T01:11:48.108Z,4.03
2018-05-09T01:12:56.826Z,3.97
2018-05-09T01:14:05.623Z,4.55
2018-05-09T01:15:14.294Z,4.18
2018-05-09T01:16:23.043Z,4.50
2018-05-09T01:17:31.699Z,5.25
2018-05-09T01:18:40.514Z,5.85
2018-05-09T01:19:49.282Z,4.60
2018-05-09T01:20:58.876Z,4.32
2018-05-09T01:22:08.413Z,4.47
2018-05-09T01:23:18.088Z,4.62
2018-05-09T01:24:27.000Z,4.25
2018-05-09T01:25:35.634Z,5.22
2018-05-09T01:26:45.228Z,4.50
2018-05-09T01:27:54.042Z,4.75
2018-05-09T01:29:02.638Z,4.80
2018-05-09T01:30:11.330Z,5.20
2018-05-09T01:31:19.994Z,4.45
2018-05-09T01:32:29.283Z,4.43
2018-05-09T01:33:38.027Z,4.45
2018-05-09T01:34:47.614Z,5.18
2018-05-09T01:35:56.331Z,4.75
2018-05-09T01:37:05.846Z,4.25
2018-05-09T01:38:14.604Z,4.30
2018-05-09T01:39:23.276Z,4.62
2018-05-09T01:40:31.955Z,5.12
2018-05-09T01:41:41.528Z,4.30
2018-05-09T01:42:50.192Z,4.28
2018-05-09T01:43:58.826Z,5.05
2018-05-09T01:45:07.467Z,4.72
2018-05-09T01:46:15.998Z,4.57
2018-05-09T01:47:24.653Z,4.95
2018-05-09T01:48:33.313Z,5.05
2018-05-09T01:49:42.705Z,5.32
2018-05-09T01:50:52.046Z,4.50
2018-05-09T01:52:00.676Z,4.70
2018-05-09T01:53:09.485Z,4.62
2018-05-09T01:54:19.224Z,3.92
2018-05-09T01:55:27.991Z,4.03
2018-05-09T01:56:36.655Z,4.50
2018-05-09T01:57:45.346Z,4.90
2018-05-09T01:58:54.170Z,4.87
2018-05-09T02:00:02.766Z,5.07
2018-05-09T02:01:12.989Z,4.45
2018-05-09T02:02:21.475Z,4.35
2018-05-09T02:03:30.045Z,5.03
2018-05-09T02:04:39.437Z,5.05
2018-05-09T02:05:48.018Z,4.95
2018-05-09T02:06:57.592Z,4.93
2018-05-09T02:08:06.310Z,4.10
2018-05-09T02:09:15.046Z,4.28
2018-05-09T02:10:23.735Z,4.55
2018-05-09T02:11:33.167Z,5.55
2018-05-09T02:12:41.740Z,5.20
2018-05-09T02:13:50.495Z,5.35
2018-05-09T02:14:59.063Z,4.85
2018-05-09T02:16:07.669Z,4.40
2018-05-09T02:17:16.432Z,5.30
2018-05-09T02:18:25.075Z,4.37
2018-05-09T02:19:33.799Z,5.10
2018-05-09T02:20:42.404Z,5.50
2018-05-09T02:21:51.119Z,5.40
2018-05-09T02:23:00.498Z,5.45
2018-05-09T02:24:09.188Z,5.75
2018-05-09T02:25:17.756Z,5.15
2018-05-09T02:26:26.527Z,4.78
2018-05-09T02:27:36.044Z,5.35
2018-05-09T02:28:44.661Z,5.00
2018-05-09T02:29:53.300Z,5.22
2018-05-09T02:31:01.914Z,5.20
2018-05-09T02:32:11.293Z,5.75
2018-05-09T02:33:20.011Z,5.43
2018-05-09T02:34:28.595Z,5.25
2018-05-09T02:35:37.201Z,5.90
2018-05-09T02:36:45.934Z,5.00
2018-05-09T02:37:54.622Z,5.55
2018-05-09T02:39:03.249Z,5.45
2018-05-09T02:40:11.933Z,5.07
2018-05-09T02:41:21.491Z,4.90
2018-05-09T02:42:30.151Z,4.82
2018-05-09T02:43:38.759Z,5.32
2018-05-09T02:44:47.409Z,5.10
2018-05-09T02:45:56.103Z,5.70
2018-05-09T02:47:04.807Z,5.70
2018-05-09T02:48:13.611Z,5.45
2018-05-09T02:49:22.308Z,5.62
2018-05-09T02:50:31.090Z,6.03
2018-05-09T02:51:39.693Z,6.45
2018-05-09T02:52:48.425Z,6.07
2018-05-09T02:53:58.064Z,5.95
2018-05-09T02:55:06.651Z,5.95
2018-05-09T02:56:15.352Z,5.10
2018-05-09T02:57:24.110Z,5.93
2018-05-09T02:58:32.950Z,5.35
2018-05-09T02:59:41.657Z,5.15
2018-05-09T03:00:50.483Z,5.25
2018-05-09T03:01:59.083Z,5.30
2018-05-09T03:03:07.659Z,5.68
2018-05-09T03:04:16.446Z,5.47
2018-05-09T03:05:25.304Z,5.60
2018-05-09T03:06:33.920Z,5.05
2018-05-09T03:07:42.744Z,5.50
2018-05-09T03:08:51.432Z,5.70
2018-05-09T03:10:00.012Z,5.95
2018-05-09T03:11:08.772Z,5.50
2018-05-09T03:12:18.271Z,6.00
2018-05-09T03:13:26.995Z,6.03
2018-05-09T03:14:36.497Z,5.50
2018-05-09T03:15:45.219Z,6.35
2018-05-09T03:16:53.907Z,6.00
2018-05-09T03:18:02.599Z,5.93
2018-05-09T03:19:11.289Z,6.15
2018-05-09T03:20:20.002Z,5.45
2018-05-09T03:21:28.631Z,5.47
2018-05-09T03:22:37.378Z,6.93
2018-05-09T03:23:45.919Z,5.25
2018-05-09T03:24:54.591Z,6.40
2018-05-09T03:26:03.339Z,5.75
2018-05-09T03:27:12.000Z,6.40
2018-05-09T03:28:20.786Z,5.95
2018-05-09T03:29:30.270Z,5.55
2018-05-09T03:30:38.982Z,6.87
2018-05-09T03:31:47.579Z,6.68
2018-05-09T03:32:56.072Z,6.55
2018-05-09T03:34:05.773Z,6.20
2018-05-09T03:35:14.423Z,5.75
2018-05-09T03:36:23.053Z,6.70
2018-05-09T03:37:31.811Z,7.12
2018-05-09T03:38:40.451Z,6.82
2018-05-09T03:39:49.082Z,6.70
2018-05-09T03:40:57.725Z,6.95
2018-05-09T03:42:06.475Z,6.57
2018-05-09T03:43:16.013Z,6.60
2018-05-09T03:44:24.756Z,6.78
2018-05-09T03:45:34.257Z,6.78
2018-05-09T03:46:43.037Z,6.68
2018-05-09T03:47:51.709Z,6.65
2018-05-09T03:49:00.217Z,6.28
2018-05-09T03:50:08.934Z,6.55
2018-05-09T03:51:18.542Z,6.60
2018-05-09T03:52:27.974Z,6.50
2018-05-09T03:53:36.567Z,5.95
2018-05-09T03:54:45.169Z,6.45
2018-05-09T03:55:54.529Z,6.55
2018-05-09T03:57:03.030Z,6.80
2018-05-09T03:58:11.604Z,6.50
2018-05-09T03:59:20.995Z,6.97
2018-05-09T04:00:29.667Z,7.05
2018-05-09T04:01:50.318Z,7.40
2018-05-09T04:03:10.827Z,7.15
2018-05-09T04:04:31.419Z,7.32
2018-05-09T04:05:51.987Z,6.80
2018-05-09T04:07:12.749Z,7.18
2018-05-09T04:08:33.536Z,7.35
2018-05-09T04:09:57.818Z,6.60
2018-05-09T04:11:06.414Z,7.43
2018-05-09T04:12:15.039Z,6.80
2018-05-09T04:13:23.761Z,6.75
2018-05-09T04:14:32.407Z,7.15
2018-05-09T04:15:41.165Z,7.60
2018-05-09T04:16:49.883Z,8.00
2018-05-09T04:17:58.596Z,7.53
2018-05-09T04:19:07.397Z,7.62
2018-05-09T04:20:16.221Z,6.45
2018-05-09T04:21:24.976Z,7.65
2018-05-09T04:22:33.718Z,7.03
2018-05-09T04:23:43.245Z,7.65
2018-05-09T04:24:51.929Z,7.85
2018-05-09T04:26:00.690Z,6.75
2018-05-09T04:27:09.402Z,6.90
2018-05-09T04:28:18.150Z,6.32
2018-05-09T04:29:26.712Z,6.75
2018-05-09T04:30:35.321Z,7.37
2018-05-09T04:31:44.087Z,7.37
2018-05-09T04:32:52.731Z,7.47
2018-05-09T04:34:01.378Z,6.62
2018-05-09T04:35:10.882Z,7.00
2018-05-09T04:36:19.893Z,7.07
2018-05-09T04:37:28.434Z,6.57
2018-05-09T04:38:37.100Z,7.37
2018-05-09T04:39:46.533Z,6.45
2018-05-09T04:40:55.179Z,6.93
2018-05-09T04:42:03.855Z,6.47
2018-05-09T04:43:12.547Z,8.30
2018-05-09T04:44:21.209Z,7.68
2018-05-09T04:45:30.710Z,7.40
2018-05-09T04:46:39.354Z,7.25
2018-05-09T04:47:48.132Z,7.60
2018-05-09T04:48:57.639Z,7.40
2018-05-09T04:50:06.252Z,8.05
2018-05-09T04:51:15.698Z,7.75
2018-05-09T04:52:24.233Z,7.45
2018-05-09T04:53:32.855Z,9.05
2018-05-09T04:54:41.446Z,8.73
2018-05-09T04:55:50.075Z,7.93
2018-05-09T04:56:58.626Z,8.20
2018-05-09T04:58:07.226Z,8.30
2018-05-09T04:59:15.832Z,7.72
2018-05-09T05:00:24.391Z,8.70
2018-05-09T05:01:33.903Z,8.52
2018-05-09T05:02:42.617Z,8.55
2018-05-09T05:03:51.243Z,9.70
2018-05-09T05:04:59.898Z,7.65
2018-05-09T05:06:08.662Z,9.38
2018-05-09T05:07:17.430Z,7.95
2018-05-09T05:08:26.114Z,8.40
2018-05-09T05:09:34.796Z,8.73
2018-05-09T05:10:43.391Z,9.10
2018-05-09T05:11:52.177Z,8.25
2018-05-09T05:13:00.813Z,8.65
2018-05-09T05:14:09.497Z,9.25
2018-05-09T05:15:18.110Z,7.95
2018-05-09T05:16:26.690Z,8.65
2018-05-09T05:17:35.327Z,8.50
2018-05-09T05:18:43.932Z,9.35
2018-05-09T05:19:52.638Z,8.80
2018-05-09T05:21:01.387Z,8.73
2018-05-09T05:22:10.104Z,8.40
2018-05-09T05:23:18.691Z,9.15
2018-05-09T05:24:27.277Z,9.02
2018-05-09T05:25:35.879Z,7.37
2018-05-09T05:26:44.551Z,9.43
2018-05-09T05:27:54.200Z,8.32
2018-05-09T05:29:04.508Z,8.10
2018-05-09T05:30:13.256Z,8.00
2018-05-09T05:31:22.074Z,8.93
2018-05-09T05:32:30.739Z,7.82
2018-05-09T05:33:39.399Z,9.32
2018-05-09T05:34:48.771Z,8.82
2018-05-09T05:35:57.395Z,8.27
2018-05-09T05:37:06.069Z,9.45
2018-05-09T05:38:15.550Z,8.88
2018-05-09T05:39:24.331Z,9.52
2018-05-09T05:40:33.023Z,8.27
2018-05-09T05:41:41.614Z,8.80
2018-05-09T05:42:50.295Z,8.63
2018-05-09T05:43:58.907Z,8.13
2018-05-09T05:45:07.393Z,10.00
2018-05-09T05:46:15.984Z,8.80
2018-05-09T05:47:24.622Z,8.65
2018-05-09T05:48:33.448Z,9.18
2018-05-09T05:49:42.105Z,9.05
2018-05-09T05:50:51.537Z,7.78
2018-05-09T05:52:00.068Z,8.32
2018-05-09T05:53:08.786Z,9.15
2018-05-09T05:54:18.225Z,9.13
2018-05-09T05:55:27.032Z,10.27
2018-05-09T05:56:35.596Z,10.85
2018-05-09T05:57:45.079Z,9.65
2018-05-09T05:58:53.769Z,9.20
2018-05-09T06:00:02.544Z,11.20
2018-05-09T06:01:11.747Z,9.70
2018-05-09T06:02:20.518Z,10.02
2018-05-09T06:03:29.965Z,9.27
2018-05-09T06:04:38.769Z,10.52
2018-05-09T06:05:47.426Z,10.55
2018-05-09T06:06:55.986Z,9.27
2018-05-09T06:08:04.737Z,9.70
2018-05-09T06:09:13.294Z,10.15
2018-05-09T06:10:21.865Z,9.60
2018-05-09T06:11:30.486Z,8.93
2018-05-09T06:12:39.204Z,11.65
2018-05-09T06:13:47.790Z,8.40
2018-05-09T06:14:56.473Z,10.25
2018-05-09T06:16:05.121Z,10.18
2018-05-09T06:17:13.867Z,9.80
2018-05-09T06:18:22.473Z,10.63
2018-05-09T06:19:31.893Z,9.55
2018-05-09T06:20:40.593Z,9.73
2018-05-09T06:21:49.313Z,10.85
2018-05-09T06:22:57.996Z,9.82
2018-05-09T06:24:06.764Z,10.52
2018-05-09T06:25:15.347Z,10.25
2018-05-09T06:26:23.942Z,8.52
2018-05-09T06:27:32.543Z,9.75
2018-05-09T06:28:41.186Z,9.82
2018-05-09T06:29:49.703Z,8.90
2018-05-09T06:30:58.551Z,9.70
2018-05-09T06:32:07.215Z,9.05
2018-05-09T06:33:15.874Z,9.18
2018-05-09T06:34:24.480Z,8.65
2018-05-09T06:35:33.262Z,10.85
2018-05-09T06:36:42.027Z,10.02
2018-05-09T06:37:51.503Z,10.77
2018-05-09T06:39:00.094Z,9.98
2018-05-09T06:40:08.762Z,10.98
2018-05-09T06:41:17.401Z,10.57
2018-05-09T06:42:25.994Z,9.45
2018-05-09T06:43:34.605Z,10.20
2018-05-09T06:44:43.299Z,8.88
2018-05-09T06:45:52.109Z,9.90
2018-05-09T06:47:00.707Z,9.70
2018-05-09T06:48:09.448Z,10.52
2018-05-09T06:49:18.062Z,9.45
2018-05-09T06:50:26.772Z,9.70
2018-05-09T06:51:35.466Z,9.30
2018-05-09T06:52:44.302Z,9.48
2018-05-09T06:53:53.127Z,8.35
2018-05-09T06:55:01.812Z,9.73
2018-05-09T06:56:10.433Z,8.43
2018-05-09T06:57:19.156Z,10.60
2018-05-09T06:58:27.892Z,10.98
2018-05-09T06:59:36.533Z,10.25
2018-05-09T07:00:45.215Z,8.85
2018-05-09T07:01:53.813Z,8.88
2018-05-09T07:03:02.435Z,10.63
2018-05-09T07:04:12.587Z,11.10
2018-05-09T07:05:21.295Z,11.00
2018-05-09T07:06:30.081Z,10.25
2018-05-09T07:07:38.509Z,11.00
2018-05-09T07:08:47.168Z,9.38
2018-05-09T07:09:55.951Z,10.85
2018-05-09T07:11:04.682Z,10.02
2018-05-09T07:12:13.499Z,10.52
2018-05-09T07:13:22.218Z,10.48
2018-05-09T07:14:31.058Z,10.15
2018-05-09T07:15:39.710Z,12.32
2018-05-09T07:16:49.172Z,9.93
2018-05-09T07:17:58.002Z,9.15
2018-05-09T07:19:06.815Z,9.95
2018-05-09T07:20:15.689Z,9.40
2018-05-09T07:21:24.407Z,10.05
2018-05-09T07:22:33.302Z,10.35
2018-05-09T07:23:42.002Z,8.45
2018-05-09T07:24:51.446Z,10.20
2018-05-09T07:26:00.138Z,8.90
2018-05-09T07:27:08.953Z,9.77
2018-05-09T07:28:17.585Z,10.35
2018-05-09T07:29:26.355Z,11.60
2018-05-09T07:30:35.814Z,9.77
2018-05-09T07:31:44.408Z,9.43
2018-05-09T07:32:53.016Z,8.23
2018-05-09T07:34:01.627Z,8.98
2018-05-09T07:35:10.341Z,9.38
2018-05-09T07:36:19.087Z,8.15
2018-05-09T07:37:28.517Z,9.40
2018-05-09T07:38:37.222Z,10.32
2018-05-09T07:39:45.834Z,8.38
2018-05-09T07:40:54.386Z,8.50
2018-05-09T07:42:02.994Z,8.20
2018-05-09T07:43:11.627Z,8.05
2018-05-09T07:44:20.242Z,8.85
2018-05-09T07:45:28.855Z,8.43
2018-05-09T07:46:37.580Z,8.73
2018-05-09T07:47:46.226Z,8.15
2018-05-09T07:48:55.528Z,8.77
2018-05-09T07:50:04.282Z,9.40
2018-05-09T07:51:13.080Z,7.95
2018-05-09T07:52:21.776Z,9.27
2018-05-09T07:53:30.347Z,9.13
2018-05-09T07:54:39.033Z,9.57
2018-05-09T07:55:47.679Z,9.18
2018-05-09T07:56:56.369Z,8.20
2018-05-09T07:58:05.719Z,8.68
2018-05-09T07:59:14.260Z,8.60
2018-05-09T08:00:22.901Z,7.85
2018-05-09T08:01:32.355Z,8.10
2018-05-09T08:02:41.097Z,8.10
2018-05-09T08:03:49.814Z,8.05
2018-05-09T08:04:58.437Z,7.97
2018-05-09T08:06:07.100Z,7.43
2018-05-09T08:07:15.698Z,9.15
2018-05-09T08:08:25.181Z,8.50
2018-05-09T08:09:33.861Z,7.75
2018-05-09T08:10:42.455Z,8.52
2018-05-09T08:11:51.094Z,8.15
2018-05-09T08:12:59.802Z,8.88
2018-05-09T08:14:09.339Z,8.05
2018-05-09T08:15:18.043Z,9.15
2018-05-09T08:16:26.740Z,8.70
2018-05-09T08:17:35.340Z,8.25
2018-05-09T08:18:44.040Z,7.85
2018-05-09T08:19:52.687Z,7.70
2018-05-09T08:21:02.091Z,8.20
2018-05-09T08:22:10.760Z,7.00
2018-05-09T08:23:19.487Z,6.95
2018-05-09T08:24:28.158Z,8.23
2018-05-09T08:25:36.946Z,8.90
2018-05-09T08:26:45.790Z,7.78
2018-05-09T08:27:54.421Z,8.23
2018-05-09T08:29:02.985Z,7.75
2018-05-09T08:30:11.625Z,8.75
2018-05-09T08:31:20.551Z,7.87
2018-05-09T08:32:29.224Z,7.82
2018-05-09T08:33:37.870Z,8.00
2018-05-09T08:34:46.499Z,7.55
2018-05-09T08:35:55.097Z,8.15
2018-05-09T08:37:03.759Z,7.55
2018-05-09T08:38:12.419Z,7.65
2018-05-09T08:39:21.162Z,7.32
2018-05-09T08:40:29.839Z,8.85
2018-05-09T08:41:38.327Z,8.77
2018-05-09T08:42:47.088Z,7.25
2018-05-09T08:43:55.673Z,7.70
2018-05-09T08:45:04.330Z,7.82
2018-05-09T08:46:12.897Z,7.12
2018-05-09T08:47:21.515Z,6.70
2018-05-09T08:48:30.223Z,7.30
2018-05-09T08:49:38.831Z,7.18
2018-05-09T08:50:47.560Z,7.90
2018-05-09T08:51:56.268Z,8.20
2018-05-09T08:53:05.594Z,8.18
2018-05-09T08:54:14.303Z,8.55
2018-05-09T08:55:23.141Z,7.65
2018-05-09T08:56:31.681Z,8.80
2018-05-09T08:57:40.294Z,6.93
2018-05-09T08:58:49.702Z,6.28
2018-05-09T08:59:58.402Z,8.18
2018-05-09T09:01:07.166Z,9.57
2018-05-09T09:02:15.844Z,8.15
2018-05-09T09:03:24.713Z,9.45
2018-05-09T09:04:33.468Z,8.63
2018-05-09T09:05:42.226Z,8.18
2018-05-09T09:06:50.800Z,7.80
2018-05-09T09:07:59.540Z,6.62
2018-05-09T09:09:08.193Z,6.85
2018-05-09T09:10:16.767Z,7.90
2018-05-09T09:11:25.457Z,7.68
2018-05-09T09:12:34.069Z,7.60
2018-05-09T09:13:42.805Z,8.27
2018-05-09T09:14:51.375Z,7.18
2018-05-09T09:16:00.067Z,6.93
2018-05-09T09:17:08.688Z,5.87
2018-05-09T09:18:17.288Z,6.82
2018-05-09T09:19:25.979Z,7.07
2018-05-09T09:20:34.768Z,6.12
2018-05-09T09:21:43.355Z,6.30
2018-05-09T09:22:52.211Z,6.72
2018-05-09T09:24:00.828Z,7.20
2018-05-09T09:25:09.369Z,6.90
2018-05-09T09:26:17.988Z,6.72
2018-05-09T09:27:26.632Z,7.68
2018-05-09T09:28:35.235Z,6.62
2018-05-09T09:29:43.965Z,5.65
2018-05-09T09:30:52.691Z,5.90
2018-05-09T09:32:01.263Z,5.80
2018-05-09T09:33:09.868Z,6.05
2018-05-09T09:34:18.523Z,7.03
2018-05-09T09:35:28.066Z,5.90
2018-05-09T09:36:36.718Z,5.20
2018-05-09T09:37:45.435Z,5.50
2018-05-09T09:38:54.948Z,6.35
2018-05-09T09:40:03.672Z,6.28
2018-05-09T09:41:12.256Z,6.82
2018-05-09T09:42:21.020Z,6.60
2018-05-09T09:43:29.685Z,6.62
2018-05-09T09:44:38.250Z,6.57
2018-05-09T09:45:47.715Z,7.40
2018-05-09T09:46:56.548Z,7.35
2018-05-09T09:48:05.131Z,7.85
2018-05-09T09:49:13.803Z,7.43
2018-05-09T09:50:23.284Z,6.90
2018-05-09T09:51:32.034Z,6.43
2018-05-09T09:52:40.735Z,5.75
2018-05-09T09:53:49.413Z,5.93
2018-05-09T09:54:58.110Z,7.15
2018-05-09T09:56:07.677Z,6.40
2018-05-09T09:57:17.113Z,6.53
2018-05-09T09:58:25.782Z,6.37
2018-05-09T09:59:34.553Z,6.45
2018-05-09T10:00:43.145Z,5.40
2018-05-09T10:01:52.683Z,6.75
2018-05-09T10:03:01.287Z,5.62
2018-05-09T10:04:09.852Z,4.75
2018-05-09T10:05:18.619Z,5.00
2018-05-09T10:06:27.250Z,5.37
2018-05-09T10:07:35.925Z,5.97
2018-05-09T10:08:45.276Z,6.05
2018-05-09T10:09:53.943Z,6.50
2018-05-09T10:11:02.787Z,6.12
2018-05-09T10:12:11.503Z,5.97
2018-05-09T10:13:21.610Z,5.80
2018-05-09T10:14:30.233Z,5.85
2018-05-09T10:15:38.847Z,5.40
2018-05-09T10:16:47.430Z,5.57
2018-05-09T10:17:56.039Z,6.00
2018-05-09T10:19:05.479Z,4.85
2018-05-09T10:20:14.143Z,5.35
2018-05-09T10:21:22.838Z,7.60
2018-05-09T10:22:31.424Z,5.10
2018-05-09T10:23:40.006Z,5.75
2018-05-09T10:24:49.335Z,5.53
2018-05-09T10:25:58.021Z,5.47
2018-05-09T10:27:06.664Z,5.60
2018-05-09T10:28:16.129Z,4.80
2018-05-09T10:29:25.701Z,5.68
2018-05-09T10:30:34.254Z,5.15
2018-05-09T10:31:42.953Z,4.80
2018-05-09T10:32:51.619Z,5.30
2018-05-09T10:34:00.235Z,5.00
2018-05-09T10:35:08.947Z,5.00
2018-05-09T10:36:17.584Z,5.45
2018-05-09T10:37:26.320Z,5.00
2018-05-09T10:38:34.982Z,4.80
2018-05-09T10:39:43.575Z,5.12
2018-05-09T10:40:52.322Z,5.62
2018-05-09T10:42:01.013Z,5.32
2018-05-09T10:43:10.695Z,5.00
2018-05-09T10:44:19.255Z,5.07
2018-05-09T10:45:27.932Z,4.50
2018-05-09T10:46:36.768Z,5.00
2018-05-09T10:47:45.452Z,5.75
2018-05-09T10:48:54.100Z,5.60
2018-05-09T10:50:02.956Z,4.20
2018-05-09T10:51:11.503Z,4.05
2018-05-09T10:52:20.189Z,4.25
2018-05-09T10:53:29.000Z,3.45
2018-05-09T10:54:37.660Z,4.10
2018-05-09T10:55:46.290Z,3.97
2018-05-09T10:56:55.110Z,3.90
2018-05-09T10:58:03.794Z,4.47
2018-05-09T10:59:12.418Z,3.97
2018-05-09T11:00:21.079Z,4.97
2018-05-09T11:01:29.692Z,4.03
2018-05-09T11:02:39.257Z,4.18
2018-05-09T11:03:48.028Z,4.37
2018-05-09T11:04:56.828Z,6.32
2018-05-09T11:06:05.622Z,4.70
2018-05-09T11:07:14.397Z,4.60
2018-05-09T11:08:23.254Z,3.35
2018-05-09T11:09:31.965Z,4.70
2018-05-09T11:10:40.683Z,4.70
2018-05-09T11:11:50.178Z,4.20
2018-05-09T11:12:58.905Z,3.65
2018-05-09T11:14:07.730Z,3.75
2018-05-09T11:15:16.504Z,4.10
2018-05-09T11:16:25.059Z,3.70
2018-05-09T11:17:33.680Z,3.62
2018-05-09T11:18:42.231Z,4.55
2018-05-09T11:19:51.775Z,3.92
2018-05-09T11:21:00.380Z,3.92
2018-05-09T11:22:09.068Z,3.97
2018-05-09T11:23:17.665Z,4.20
2018-05-09T11:24:26.449Z,3.67
2018-05-09T11:25:34.902Z,4.15
2018-05-09T11:26:43.571Z,4.90
2018-05-09T11:27:52.364Z,4.65
2018-05-09T11:29:01.071Z,3.90
2018-05-09T11:30:09.854Z,4.00
2018-05-09T11:31:18.541Z,7.03
2018-05-09T11:32:27.168Z,5.78
2018-05-09T11:33:36.698Z,5.95
2018-05-09T11:34:45.408Z,4.20
2018-05-09T11:35:54.085Z,4.35
2018-05-09T11:37:02.743Z,4.00
2018-05-09T11:38:11.452Z,4.50
2018-05-09T11:39:20.047Z,3.50
2018-05-09T11:40:28.710Z,4.47
2018-05-09T11:41:37.271Z,6.00
2018-05-09T11:42:46.001Z,6.40
2018-05-09T11:43:54.757Z,5.32
2018-05-09T11:45:03.568Z,4.10
2018-05-09T11:46:12.968Z,4.22
2018-05-09T11:47:21.699Z,4.37
2018-05-09T11:48:30.280Z,4.43
2018-05-09T11:49:39.069Z,5.55
2018-05-09T11:50:47.892Z,4.22
2018-05-09T11:51:56.487Z,4.80
2018-05-09T11:53:05.842Z,3.72
2018-05-09T11:54:14.452Z,4.50
2018-05-09T11:55:23.088Z,4.95
2018-05-09T11:56:31.875Z,4.20
2018-05-09T11:57:40.579Z,4.55
2018-05-09T11:58:49.110Z,3.72
2018-05-09T11:59:57.822Z,5.35
2018-05-09T12:01:06.525Z,6.30
2018-05-09T12:02:16.046Z,4.47
2018-05-09T12:03:24.656Z,5.12
2018-05-09T12:04:34.067Z,4.90
2018-05-09T12:05:42.899Z,4.87
2018-05-09T12:06:51.512Z,4.35
2018-05-09T12:08:00.236Z,4.90
2018-05-09T12:09:09.003Z,5.55
2018-05-09T12:10:17.651Z,4.35
2018-05-09T12:11:26.242Z,4.10
2018-05-09T12:12:34.939Z,4.70
2018-05-09T12:13:43.667Z,4.30
2018-05-09T12:14:52.260Z,4.47
2018-05-09T12:16:00.952Z,4.35
2018-05-09T12:17:09.626Z,4.28
2018-05-09T12:18:18.355Z,5.28
2018-05-09T12:19:27.128Z,3.80
2018-05-09T12:20:35.687Z,4.25
2018-05-09T12:21:44.331Z,3.90
2018-05-09T12:22:53.020Z,4.00
2018-05-09T12:24:01.567Z,4.57
2018-05-09T12:25:10.222Z,4.20
2018-05-09T12:26:18.982Z,3.60
2018-05-09T12:27:28.564Z,4.40
2018-05-09T12:28:37.345Z,3.40
2018-05-09T12:29:46.053Z,4.18
2018-05-09T12:30:54.626Z,4.05
2018-05-09T12:32:04.165Z,3.80
2018-05-09T12:33:12.857Z,3.90
2018-05-09T12:34:21.618Z,4.35
2018-05-09T12:35:30.468Z,3.60
2018-05-09T12:36:39.229Z,4.30
2018-05-09T12:37:47.794Z,4.03
2018-05-09T12:38:56.465Z,3.75
2018-05-09T12:40:06.046Z,3.78
2018-05-09T12:41:14.727Z,4.12
2018-05-09T12:42:23.293Z,3.60
2018-05-09T12:43:31.820Z,4.12
2018-05-09T12:44:40.316Z,3.65
2018-05-09T12:45:48.999Z,4.45
2018-05-09T12:46:57.773Z,3.90
2018-05-09T12:48:07.243Z,3.95
2018-05-09T12:49:15.967Z,4.53
2018-05-09T12:50:24.602Z,4.00
2018-05-09T12:51:33.168Z,3.50
2018-05-09T12:52:41.819Z,4.00
2018-05-09T12:53:50.605Z,3.67
2018-05-09T12:54:59.320Z,3.95
2018-05-09T12:56:07.906Z,4.32
2018-05-09T12:57:16.603Z,4.25
2018-05-09T12:58:25.316Z,4.03
2018-05-09T12:59:34.016Z,3.70
2018-05-09T13:00:42.660Z,3.80
2018-05-09T13:01:51.280Z,3.92
2018-05-09T13:02:59.884Z,3.92
2018-05-09T13:04:08.522Z,3.70
2018-05-09T13:05:18.035Z,3.80
2018-05-09T13:06:26.883Z,3.40
2018-05-09T13:07:35.672Z,3.62
2018-05-09T13:08:44.507Z,3.90
2018-05-09T13:09:53.126Z,3.60
2018-05-09T13:11:02.011Z,3.87
2018-05-09T13:12:10.783Z,4.12
2018-05-09T13:13:20.249Z,3.70
2018-05-09T13:14:28.842Z,3.50
2018-05-09T13:15:37.559Z,3.50
2018-05-09T13:16:46.303Z,4.10
2018-05-09T13:17:55.792Z,3.85
2018-05-09T13:19:04.444Z,4.25
2018-05-09T13:20:14.048Z,3.97
2018-05-09T13:21:22.697Z,3.72
2018-05-09T13:22:31.387Z,3.70
2018-05-09T13:23:39.975Z,3.45
2018-05-09T13:24:48.865Z,3.10
2018-05-09T13:25:57.439Z,3.90
2018-05-09T13:27:06.111Z,3.53
2018-05-09T13:28:14.919Z,3.42
2018-05-09T13:29:23.743Z,3.60
2018-05-09T13:30:32.415Z,3.28
2018-05-09T13:31:41.081Z,3.53
2018-05-09T13:32:49.751Z,3.00
2018-05-09T13:33:58.356Z,3.00
2018-05-09T13:35:07.008Z,3.40
2018-05-09T13:36:15.673Z,4.35
2018-05-09T13:37:24.502Z,5.43
2018-05-09T13:38:33.209Z,4.32
2018-05-09T13:39:41.783Z,3.90
2018-05-09T13:40:50.420Z,3.70
2018-05-09T13:41:59.046Z,3.87
2018-05-09T13:43:08.696Z,4.20
2018-05-09T13:44:18.249Z,3.45
2018-05-09T13:45:26.861Z,3.05
2018-05-09T13:46:35.547Z,4.25
2018-05-09T13:47:44.311Z,3.92
2018-05-09T13:48:53.839Z,4.00
2018-05-09T13:50:02.452Z,3.80
2018-05-09T13:51:12.077Z,4.82
2018-05-09T13:52:20.671Z,3.95
2018-05-09T13:53:30.053Z,4.70
2018-05-09T13:54:38.874Z,3.90
2018-05-09T13:55:48.412Z,4.28
2018-05-09T13:56:57.149Z,4.30
2018-05-09T13:58:05.776Z,4.50
2018-05-09T13:59:14.461Z,4.82
2018-05-09T14:00:23.085Z,4.43
2018-05-09T14:01:31.736Z,4.28
2018-05-09T14:02:40.315Z,3.75
2018-05-09T14:03:49.072Z,4.37
2018-05-09T14:04:57.701Z,4.60
2018-05-09T14:06:06.434Z,4.00
2018-05-09T14:07:15.172Z,4.18
2018-05-09T14:08:23.899Z,3.90
2018-05-09T14:09:32.540Z,4.45
2018-05-09T14:10:41.239Z,2.97
2018-05-09T14:11:49.838Z,3.35
2018-05-09T14:12:58.529Z,3.45
2018-05-09T14:14:08.019Z,4.18
2018-05-09T14:15:16.645Z,3.12
2018-05-09T14:16:26.097Z,3.50
2018-05-09T14:17:34.819Z,3.50
2018-05-09T14:18:43.592Z,3.00
2018-05-09T14:19:52.155Z,3.15
2018-05-09T14:21:00.755Z,3.17
2018-05-09T14:22:10.231Z,2.90
2018-05-09T14:23:19.059Z,3.42
2018-05-09T14:24:27.753Z,3.25
2018-05-09T14:25:36.586Z,2.70
2018-05-09T14:26:45.276Z,2.83
2018-05-09T14:27:53.944Z,3.08
2018-05-09T14:29:02.568Z,2.90
2018-05-09T14:30:11.330Z,2.87
2018-05-09T14:31:19.932Z,2.25
2018-05-09T14:32:28.742Z,2.67
2018-05-09T14:33:37.288Z,3.00
2018-05-09T14:34:45.929Z,2.45
2018-05-09T14:35:54.652Z,2.50
2018-05-09T14:37:03.323Z,2.60
2018-05-09T14:38:12.668Z,2.50
2018-05-09T14:39:21.416Z,2.10
2018-05-09T14:40:30.272Z,2.35
2018-05-09T14:41:39.051Z,2.22
2018-05-09T14:42:47.859Z,2.70
2018-05-09T14:43:56.525Z,2.00
2018-05-09T14:45:05.151Z,2.08
2018-05-09T14:46:14.647Z,2.28
2018-05-09T14:47:23.434Z,2.65
2018-05-09T14:48:31.990Z,2.47
2018-05-09T14:49:40.677Z,2.60
2018-05-09T14:50:49.294Z,2.12
2018-05-09T14:51:58.121Z,4.20
2018-05-09T14:53:07.000Z,3.20
2018-05-09T14:54:16.589Z,3.55
2018-05-09T14:55:25.358Z,2.87
2018-05-09T14:56:33.984Z,1.90
2018-05-09T14:57:42.661Z,2.90
2018-05-09T14:58:52.149Z,2.65
2018-05-09T15:00:00.743Z,2.50
2018-05-09T15:01:09.344Z,2.60
2018-05-09T15:02:18.088Z,2.75
2018-05-09T15:03:26.698Z,3.25
2018-05-09T15:04:35.425Z,2.80
2018-05-09T15:05:44.135Z,3.42
2018-05-09T15:06:52.846Z,4.57
2018-05-09T15:08:02.189Z,4.10
2018-05-09T15:09:10.948Z,3.35
2018-05-09T15:10:19.560Z,4.28
2018-05-09T15:11:28.925Z,3.10
2018-05-09T15:12:37.634Z,4.12
2018-05-09T15:13:46.223Z,3.70
2018-05-09T15:14:55.036Z,6.00
2018-05-09T15:16:03.847Z,4.00